sensor_id;sensor_type;location;lat;lon;timestamp;P1;durP1;ratioP1;P2;durP2;ratioP2
15665;SDS011;20725;51.196;3.510;2022-12-10T00:01:30;191.77;;;36.40;;
15665;SDS011;20725;51.196;3.510;2022-12-10T00:03:57;355.70;;;50.17;;
15665;SDS011;20725;51.196;3.510;2022-12-10T00:06:26;258.73;;;38.83;;
15665;SDS011;20725;51.196;3.510;2022-12-10T00:08:59;301.77;;;45.80;;
15665;SDS011;20725;51.196;3.510;2022-12-10T00:11:27;246.83;;;46.67;;
15665;SDS011;20725;51.196;3.510;2022-12-10T00:13:55;301.00;;;46.97;;
15665;SDS011;20725;51.196;3.510;2022-12-10T00:16:23;369.47;;;46.67;;
15665;SDS011;20725;51.196;3.510;2022-12-10T00:18:54;379.90;;;52.70;;
15665;SDS011;20725;51.196;3.510;2022-12-10T00:21:22;127.53;;;23.57;;
15665;SDS011;20725;51.196;3.510;2022-12-10T00:23:51;400.70;;;53.23;;
15665;SDS011;20725;51.196;3.510;2022-12-10T00:26:20;267.00;;;34.07;;
15665;SDS011;20725;51.196;3.510;2022-12-10T00:28:49;327.93;;;48.47;;
15665;SDS011;20725;51.196;3.510;2022-12-10T00:31:17;424.30;;;52.20;;
15665;SDS011;20725;51.196;3.510;2022-12-10T00:33:46;316.80;;;48.47;;
15665;SDS011;20725;51.196;3.510;2022-12-10T00:36:15;478.20;;;55.93;;
15665;SDS011;20725;51.196;3.510;2022-12-10T00:38:44;454.97;;;49.57;;
15665;SDS011;20725;51.196;3.510;2022-12-10T00:41:12;418.80;;;51.63;;
15665;SDS011;20725;51.196;3.510;2022-12-10T00:43:42;464.50;;;54.13;;
15665;SDS011;20725;51.196;3.510;2022-12-10T00:46:10;423.30;;;51.33;;
15665;SDS011;20725;51.196;3.510;2022-12-10T00:48:38;414.10;;;48.93;;
15665;SDS011;20725;51.196;3.510;2022-12-10T00:51:06;508.77;;;57.23;;
15665;SDS011;20725;51.196;3.510;2022-12-10T00:53:35;407.07;;;49.43;;
15665;SDS011;20725;51.196;3.510;2022-12-10T00:56:03;438.50;;;50.53;;
15665;SDS011;20725;51.196;3.510;2022-12-10T00:58:32;431.73;;;52.47;;
15665;SDS011;20725;51.196;3.510;2022-12-10T01:08:49;483.13;;;55.83;;
15665;SDS011;20725;51.196;3.510;2022-12-10T01:11:21;415.13;;;49.33;;
15665;SDS011;20725;51.196;3.510;2022-12-10T01:14:09;462.50;;;52.83;;
15665;SDS011;20725;51.196;3.510;2022-12-10T01:16:45;503.30;;;61.27;;
15665;SDS011;20725;51.196;3.510;2022-12-10T01:19:31;529.80;;;54.67;;
15665;SDS011;20725;51.196;3.510;2022-12-10T01:22:37;507.80;;;53.50;;
15665;SDS011;20725;51.196;3.510;2022-12-10T01:25:08;460.47;;;53.30;;
15665;SDS011;20725;51.196;3.510;2022-12-10T01:27:36;518.30;;;58.07;;
15665;SDS011;20725;51.196;3.510;2022-12-10T01:30:15;447.03;;;53.53;;
15665;SDS011;20725;51.196;3.510;2022-12-10T01:32:58;521.07;;;55.57;;
15665;SDS011;20725;51.196;3.510;2022-12-10T01:35:35;581.83;;;63.83;;
15665;SDS011;20725;51.196;3.510;2022-12-10T01:38:07;488.23;;;57.20;;
15665;SDS011;20725;51.196;3.510;2022-12-10T01:40:39;474.17;;;51.67;;
15665;SDS011;20725;51.196;3.510;2022-12-10T01:46:33;502.37;;;52.37;;
15665;SDS011;20725;51.196;3.510;2022-12-10T01:49:17;394.27;;;45.33;;
15665;SDS011;20725;51.196;3.510;2022-12-10T01:52:11;464.80;;;52.73;;
15665;SDS011;20725;51.196;3.510;2022-12-10T01:54:56;336.80;;;43.00;;
15665;SDS011;20725;51.196;3.510;2022-12-10T01:57:34;436.70;;;50.30;;
15665;SDS011;20725;51.196;3.510;2022-12-10T02:00:07;399.97;;;45.60;;
15665;SDS011;20725;51.196;3.510;2022-12-10T02:03:18;454.47;;;48.07;;
15665;SDS011;20725;51.196;3.510;2022-12-10T02:06:17;383.23;;;45.40;;
15665;SDS011;20725;51.196;3.510;2022-12-10T02:09:04;334.53;;;41.50;;
15665;SDS011;20725;51.196;3.510;2022-12-10T02:11:46;374.20;;;45.80;;
15665;SDS011;20725;51.196;3.510;2022-12-10T02:14:36;269.73;;;42.77;;
15665;SDS011;20725;51.196;3.510;2022-12-10T02:17:13;255.80;;;35.10;;
15665;SDS011;20725;51.196;3.510;2022-12-10T02:20:09;251.37;;;38.90;;
15665;SDS011;20725;51.196;3.510;2022-12-10T02:26:04;211.60;;;36.60;;
15665;SDS011;20725;51.196;3.510;2022-12-10T02:31:35;300.53;;;40.27;;
15665;SDS011;20725;51.196;3.510;2022-12-10T02:34:24;359.23;;;46.47;;
15665;SDS011;20725;51.196;3.510;2022-12-10T02:37:12;288.13;;;38.33;;
15665;SDS011;20725;51.196;3.510;2022-12-10T02:40:15;347.60;;;42.73;;
15665;SDS011;20725;51.196;3.510;2022-12-10T02:42:59;218.17;;;33.43;;
15665;SDS011;20725;51.196;3.510;2022-12-10T02:45:33;332.03;;;44.60;;
15665;SDS011;20725;51.196;3.510;2022-12-10T02:48:12;317.73;;;39.83;;
15665;SDS011;20725;51.196;3.510;2022-12-10T02:50:46;348.03;;;42.50;;
15665;SDS011;20725;51.196;3.510;2022-12-10T02:53:16;293.20;;;39.20;;
15665;SDS011;20725;51.196;3.510;2022-12-10T02:55:53;239.23;;;38.17;;
15665;SDS011;20725;51.196;3.510;2022-12-10T02:58:42;277.27;;;38.13;;
15665;SDS011;20725;51.196;3.510;2022-12-10T03:01:38;321.33;;;43.70;;
15665;SDS011;20725;51.196;3.510;2022-12-10T03:04:31;332.97;;;40.30;;
15665;SDS011;20725;51.196;3.510;2022-12-10T03:07:37;274.87;;;35.50;;
15665;SDS011;20725;51.196;3.510;2022-12-10T03:10:25;311.83;;;39.17;;
15665;SDS011;20725;51.196;3.510;2022-12-10T03:13:06;337.70;;;37.93;;
15665;SDS011;20725;51.196;3.510;2022-12-10T03:15:47;214.23;;;27.07;;
15665;SDS011;20725;51.196;3.510;2022-12-10T03:18:26;417.93;;;46.07;;
15665;SDS011;20725;51.196;3.510;2022-12-10T03:21:12;326.30;;;39.17;;
15665;SDS011;20725;51.196;3.510;2022-12-10T03:24:02;308.17;;;38.53;;
15665;SDS011;20725;51.196;3.510;2022-12-10T03:26:53;254.23;;;31.60;;
15665;SDS011;20725;51.196;3.510;2022-12-10T03:29:41;281.13;;;34.77;;
15665;SDS011;20725;51.196;3.510;2022-12-10T03:32:29;242.80;;;34.30;;
15665;SDS011;20725;51.196;3.510;2022-12-10T03:44:04;387.00;;;42.13;;
15665;SDS011;20725;51.196;3.510;2022-12-10T03:46:48;322.90;;;37.97;;
15665;SDS011;20725;51.196;3.510;2022-12-10T03:49:39;294.03;;;34.37;;
15665;SDS011;20725;51.196;3.510;2022-12-10T03:52:15;344.57;;;40.43;;
15665;SDS011;20725;51.196;3.510;2022-12-10T03:54:53;347.63;;;37.97;;
15665;SDS011;20725;51.196;3.510;2022-12-10T03:57:25;284.13;;;37.10;;
15665;SDS011;20725;51.196;3.510;2022-12-10T03:59:59;303.10;;;35.93;;
15665;SDS011;20725;51.196;3.510;2022-12-10T04:02:31;368.77;;;35.93;;
15665;SDS011;20725;51.196;3.510;2022-12-10T04:05:28;291.47;;;35.83;;
15665;SDS011;20725;51.196;3.510;2022-12-10T04:08:07;317.87;;;35.77;;
15665;SDS011;20725;51.196;3.510;2022-12-10T04:10:45;339.17;;;38.37;;
15665;SDS011;20725;51.196;3.510;2022-12-10T04:16:25;347.60;;;36.17;;
15665;SDS011;20725;51.196;3.510;2022-12-10T04:19:08;334.83;;;36.87;;
15665;SDS011;20725;51.196;3.510;2022-12-10T04:22:01;316.20;;;37.87;;
15665;SDS011;20725;51.196;3.510;2022-12-10T04:24:59;340.40;;;37.73;;
15665;SDS011;20725;51.196;3.510;2022-12-10T04:27:45;334.20;;;36.90;;
15665;SDS011;20725;51.196;3.510;2022-12-10T04:33:26;296.23;;;32.70;;
15665;SDS011;20725;51.196;3.510;2022-12-10T04:35:57;322.93;;;37.20;;
15665;SDS011;20725;51.196;3.510;2022-12-10T04:38:32;405.67;;;38.83;;
15665;SDS011;20725;51.196;3.510;2022-12-10T04:41:17;236.47;;;35.80;;
15665;SDS011;20725;51.196;3.510;2022-12-10T04:43:56;298.83;;;37.50;;
15665;SDS011;20725;51.196;3.510;2022-12-10T04:49:19;201.07;;;29.97;;
15665;SDS011;20725;51.196;3.510;2022-12-10T04:51:53;280.93;;;34.30;;
15665;SDS011;20725;51.196;3.510;2022-12-10T04:54:32;340.37;;;38.13;;
15665;SDS011;20725;51.196;3.510;2022-12-10T04:57:18;337.43;;;39.87;;
15665;SDS011;20725;51.196;3.510;2022-12-10T05:02:54;330.30;;;35.87;;
15665;SDS011;20725;51.196;3.510;2022-12-10T05:05:47;464.27;;;43.00;;
15665;SDS011;20725;51.196;3.510;2022-12-10T05:08:38;322.47;;;37.97;;
15665;SDS011;20725;51.196;3.510;2022-12-10T05:11:18;332.70;;;35.07;;
15665;SDS011;20725;51.196;3.510;2022-12-10T05:14:13;285.23;;;31.70;;
15665;SDS011;20725;51.196;3.510;2022-12-10T05:16:55;263.10;;;32.20;;
15665;SDS011;20725;51.196;3.510;2022-12-10T05:19:29;348.50;;;33.90;;
15665;SDS011;20725;51.196;3.510;2022-12-10T05:26:42;417.90;;;39.93;;
15665;SDS011;20725;51.196;3.510;2022-12-10T05:28:47;234.80;;;28.73;;
15665;SDS011;20725;51.196;3.510;2022-12-10T05:31:21;387.07;;;37.00;;
15665;SDS011;20725;51.196;3.510;2022-12-10T05:34:08;299.40;;;35.13;;
15665;SDS011;20725;51.196;3.510;2022-12-10T05:37:05;345.90;;;35.83;;
15665;SDS011;20725;51.196;3.510;2022-12-10T05:39:36;353.77;;;38.93;;
15665;SDS011;20725;51.196;3.510;2022-12-10T05:42:18;241.37;;;35.37;;
15665;SDS011;20725;51.196;3.510;2022-12-10T05:44:59;357.20;;;39.17;;
15665;SDS011;20725;51.196;3.510;2022-12-10T05:47:34;268.73;;;37.43;;
15665;SDS011;20725;51.196;3.510;2022-12-10T05:50:21;444.03;;;48.40;;
15665;SDS011;20725;51.196;3.510;2022-12-10T05:53:16;360.10;;;41.93;;
15665;SDS011;20725;51.196;3.510;2022-12-10T05:55:49;365.13;;;42.53;;
15665;SDS011;20725;51.196;3.510;2022-12-10T05:58:22;305.53;;;36.57;;
15665;SDS011;20725;51.196;3.510;2022-12-10T06:01:07;258.00;;;37.83;;
15665;SDS011;20725;51.196;3.510;2022-12-10T06:03:52;467.77;;;47.17;;
15665;SDS011;20725;51.196;3.510;2022-12-10T06:06:36;336.90;;;40.30;;
15665;SDS011;20725;51.196;3.510;2022-12-10T06:12:21;284.23;;;35.37;;
15665;SDS011;20725;51.196;3.510;2022-12-10T06:14:55;269.90;;;38.90;;
15665;SDS011;20725;51.196;3.510;2022-12-10T06:17:41;321.37;;;40.27;;
15665;SDS011;20725;51.196;3.510;2022-12-10T06:20:25;355.97;;;42.83;;
15665;SDS011;20725;51.196;3.510;2022-12-10T06:26:11;313.73;;;35.93;;
15665;SDS011;20725;51.196;3.510;2022-12-10T06:28:56;215.97;;;34.60;;
15665;SDS011;20725;51.196;3.510;2022-12-10T06:31:37;323.97;;;37.87;;
15665;SDS011;20725;51.196;3.510;2022-12-10T06:34:23;292.57;;;37.90;;
15665;SDS011;20725;51.196;3.510;2022-12-10T06:37:03;159.87;;;29.30;;
15665;SDS011;20725;51.196;3.510;2022-12-10T06:39:37;297.17;;;36.07;;
15665;SDS011;20725;51.196;3.510;2022-12-10T06:42:10;255.50;;;35.57;;
15665;SDS011;20725;51.196;3.510;2022-12-10T06:50:33;226.23;;;34.63;;
15665;SDS011;20725;51.196;3.510;2022-12-10T06:53:04;170.93;;;28.13;;
15665;SDS011;20725;51.196;3.510;2022-12-10T06:55:45;216.50;;;34.10;;
15665;SDS011;20725;51.196;3.510;2022-12-10T06:58:32;207.53;;;32.33;;
15665;SDS011;20725;51.196;3.510;2022-12-10T07:04:07;178.67;;;31.60;;
15665;SDS011;20725;51.196;3.510;2022-12-10T07:06:47;199.83;;;34.47;;
15665;SDS011;20725;51.196;3.510;2022-12-10T07:09:33;215.03;;;33.30;;
15665;SDS011;20725;51.196;3.510;2022-12-10T07:12:27;186.70;;;33.37;;
15665;SDS011;20725;51.196;3.510;2022-12-10T07:14:59;197.60;;;31.80;;
15665;SDS011;20725;51.196;3.510;2022-12-10T07:17:31;188.33;;;32.77;;
15665;SDS011;20725;51.196;3.510;2022-12-10T07:20:16;175.13;;;28.37;;
15665;SDS011;20725;51.196;3.510;2022-12-10T07:23:10;241.40;;;31.47;;
15665;SDS011;20725;51.196;3.510;2022-12-10T07:26:17;169.97;;;30.40;;
15665;SDS011;20725;51.196;3.510;2022-12-10T07:29:09;156.20;;;24.17;;
15665;SDS011;20725;51.196;3.510;2022-12-10T07:32:01;145.57;;;27.87;;
15665;SDS011;20725;51.196;3.510;2022-12-10T07:35:04;123.33;;;29.67;;
15665;SDS011;20725;51.196;3.510;2022-12-10T07:37:45;166.43;;;30.87;;
15665;SDS011;20725;51.196;3.510;2022-12-10T07:40:28;213.43;;;34.93;;
15665;SDS011;20725;51.196;3.510;2022-12-10T07:43:12;167.93;;;32.03;;
15665;SDS011;20725;51.196;3.510;2022-12-10T07:46:07;271.33;;;37.63;;
15665;SDS011;20725;51.196;3.510;2022-12-10T07:48:53;242.57;;;32.77;;
15665;SDS011;20725;51.196;3.510;2022-12-10T07:54:36;272.63;;;39.17;;
15665;SDS011;20725;51.196;3.510;2022-12-10T07:57:33;212.90;;;32.70;;
15665;SDS011;20725;51.196;3.510;2022-12-10T08:00:24;207.77;;;34.00;;
15665;SDS011;20725;51.196;3.510;2022-12-10T08:03:07;210.30;;;35.17;;
15665;SDS011;20725;51.196;3.510;2022-12-10T08:09:20;149.10;;;33.73;;
15665;SDS011;20725;51.196;3.510;2022-12-10T08:11:59;151.13;;;34.27;;
15665;SDS011;20725;51.196;3.510;2022-12-10T08:15:04;200.70;;;41.47;;
15665;SDS011;20725;51.196;3.510;2022-12-10T08:17:49;168.53;;;34.53;;
15665;SDS011;20725;51.196;3.510;2022-12-10T08:20:19;264.93;;;39.90;;
15665;SDS011;20725;51.196;3.510;2022-12-10T08:35:53;126.97;;;35.37;;
15665;SDS011;20725;51.196;3.510;2022-12-10T08:39:31;134.33;;;36.03;;
15665;SDS011;20725;51.196;3.510;2022-12-10T08:42:38;88.63;;;24.70;;
15665;SDS011;20725;51.196;3.510;2022-12-10T08:45:32;159.57;;;37.83;;
15665;SDS011;20725;51.196;3.510;2022-12-10T08:54:36;156.77;;;37.30;;
15665;SDS011;20725;51.196;3.510;2022-12-10T08:57:38;133.43;;;31.93;;
15665;SDS011;20725;51.196;3.510;2022-12-10T09:00:34;137.30;;;36.20;;
15665;SDS011;20725;51.196;3.510;2022-12-10T09:03:30;112.83;;;32.93;;
15665;SDS011;20725;51.196;3.510;2022-12-10T09:06:09;118.23;;;33.43;;
15665;SDS011;20725;51.196;3.510;2022-12-10T09:08:52;145.23;;;37.57;;
15665;SDS011;20725;51.196;3.510;2022-12-10T09:11:29;155.63;;;41.70;;
15665;SDS011;20725;51.196;3.510;2022-12-10T09:14:18;158.73;;;39.57;;
15665;SDS011;20725;51.196;3.510;2022-12-10T09:16:46;148.00;;;38.40;;
15665;SDS011;20725;51.196;3.510;2022-12-10T09:19:35;101.03;;;30.83;;
15665;SDS011;20725;51.196;3.510;2022-12-10T09:22:33;90.37;;;29.63;;
15665;SDS011;20725;51.196;3.510;2022-12-10T09:25:26;62.10;;;22.27;;
15665;SDS011;20725;51.196;3.510;2022-12-10T09:28:10;63.07;;;24.40;;
15665;SDS011;20725;51.196;3.510;2022-12-10T09:30:56;126.87;;;37.00;;
15665;SDS011;20725;51.196;3.510;2022-12-10T09:33:52;99.87;;;33.43;;
15665;SDS011;20725;51.196;3.510;2022-12-10T09:36:49;98.30;;;36.37;;
15665;SDS011;20725;51.196;3.510;2022-12-10T09:39:17;107.77;;;34.63;;
15665;SDS011;20725;51.196;3.510;2022-12-10T09:45:20;101.20;;;33.00;;
15665;SDS011;20725;51.196;3.510;2022-12-10T09:48:02;89.40;;;31.57;;
15665;SDS011;20725;51.196;3.510;2022-12-10T09:50:41;86.57;;;30.23;;
15665;SDS011;20725;51.196;3.510;2022-12-10T09:53:28;87.47;;;29.07;;
15665;SDS011;20725;51.196;3.510;2022-12-10T09:56:21;100.93;;;32.33;;
15665;SDS011;20725;51.196;3.510;2022-12-10T09:58:59;101.83;;;32.73;;
15665;SDS011;20725;51.196;3.510;2022-12-10T10:01:36;80.47;;;29.67;;
15665;SDS011;20725;51.196;3.510;2022-12-10T10:04:18;91.97;;;33.17;;
15665;SDS011;20725;51.196;3.510;2022-12-10T10:07:06;104.10;;;35.03;;
15665;SDS011;20725;51.196;3.510;2022-12-10T10:09:51;80.37;;;30.23;;
15665;SDS011;20725;51.196;3.510;2022-12-10T10:13:01;71.47;;;28.33;;
15665;SDS011;20725;51.196;3.510;2022-12-10T10:16:19;70.73;;;28.40;;
15665;SDS011;20725;51.196;3.510;2022-12-10T10:19:19;68.87;;;27.43;;
15665;SDS011;20725;51.196;3.510;2022-12-10T10:22:36;79.93;;;31.40;;
15665;SDS011;20725;51.196;3.510;2022-12-10T10:25:37;66.60;;;30.03;;
15665;SDS011;20725;51.196;3.510;2022-12-10T10:28:26;65.20;;;29.70;;
15665;SDS011;20725;51.196;3.510;2022-12-10T10:46:47;31.97;;;19.93;;
15665;SDS011;20725;51.196;3.510;2022-12-10T10:51:37;26.60;;;20.93;;
15665;SDS011;20725;51.196;3.510;2022-12-10T10:52:46;26.83;;;19.73;;
15665;SDS011;20725;51.196;3.510;2022-12-10T10:55:38;24.17;;;18.70;;
15665;SDS011;20725;51.196;3.510;2022-12-10T10:58:22;26.33;;;19.57;;
15665;SDS011;20725;51.196;3.510;2022-12-10T11:01:11;24.83;;;17.87;;
15665;SDS011;20725;51.196;3.510;2022-12-10T11:04:07;21.53;;;17.93;;
15665;SDS011;20725;51.196;3.510;2022-12-10T11:07:12;22.47;;;18.43;;
15665;SDS011;20725;51.196;3.510;2022-12-10T11:10:01;20.30;;;16.97;;
15665;SDS011;20725;51.196;3.510;2022-12-10T11:13:06;22.00;;;18.07;;
15665;SDS011;20725;51.196;3.510;2022-12-10T11:16:16;19.17;;;17.20;;
15665;SDS011;20725;51.196;3.510;2022-12-10T11:19:16;17.43;;;15.53;;
15665;SDS011;20725;51.196;3.510;2022-12-10T11:22:14;18.30;;;16.37;;
15665;SDS011;20725;51.196;3.510;2022-12-10T11:25:42;17.57;;;15.63;;
15665;SDS011;20725;51.196;3.510;2022-12-10T11:28:36;17.17;;;14.93;;
15665;SDS011;20725;51.196;3.510;2022-12-10T11:37:44;14.63;;;13.10;;
15665;SDS011;20725;51.196;3.510;2022-12-10T11:40:58;14.80;;;13.33;;
15665;SDS011;20725;51.196;3.510;2022-12-10T11:44:10;15.23;;;13.63;;
15665;SDS011;20725;51.196;3.510;2022-12-10T11:47:18;15.33;;;13.73;;
15665;SDS011;20725;51.196;3.510;2022-12-10T11:50:19;16.67;;;14.97;;
15665;SDS011;20725;51.196;3.510;2022-12-10T11:53:18;16.20;;;14.60;;
15665;SDS011;20725;51.196;3.510;2022-12-10T11:56:26;15.53;;;13.93;;
15665;SDS011;20725;51.196;3.510;2022-12-10T11:59:14;15.67;;;13.97;;
15665;SDS011;20725;51.196;3.510;2022-12-10T12:01:57;17.07;;;15.10;;
15665;SDS011;20725;51.196;3.510;2022-12-10T12:08:12;19.27;;;14.77;;
15665;SDS011;20725;51.196;3.510;2022-12-10T12:11:02;17.80;;;13.90;;
15665;SDS011;20725;51.196;3.510;2022-12-10T12:14:00;18.37;;;15.30;;
15665;SDS011;20725;51.196;3.510;2022-12-10T12:16:39;20.47;;;15.50;;
15665;SDS011;20725;51.196;3.510;2022-12-10T12:19:32;20.13;;;14.83;;
15665;SDS011;20725;51.196;3.510;2022-12-10T12:23:02;17.27;;;14.77;;
15665;SDS011;20725;51.196;3.510;2022-12-10T12:32:09;16.77;;;14.17;;
15665;SDS011;20725;51.196;3.510;2022-12-10T12:35:14;17.70;;;14.83;;
15665;SDS011;20725;51.196;3.510;2022-12-10T12:47:37;16.30;;;13.40;;
15665;SDS011;20725;51.196;3.510;2022-12-10T12:50:29;15.67;;;14.07;;
15665;SDS011;20725;51.196;3.510;2022-12-10T12:56:42;16.37;;;14.33;;
15665;SDS011;20725;51.196;3.510;2022-12-10T12:59:53;16.60;;;13.40;;
15665;SDS011;20725;51.196;3.510;2022-12-10T13:02:59;18.40;;;13.07;;
15665;SDS011;20725;51.196;3.510;2022-12-10T13:06:30;17.90;;;14.67;;
15665;SDS011;20725;51.196;3.510;2022-12-10T13:09:27;17.70;;;13.23;;
15665;SDS011;20725;51.196;3.510;2022-12-10T13:12:17;16.63;;;14.63;;
15665;SDS011;20725;51.196;3.510;2022-12-10T13:15:17;17.03;;;13.90;;
15665;SDS011;20725;51.196;3.510;2022-12-10T13:21:26;19.10;;;16.60;;
15665;SDS011;20725;51.196;3.510;2022-12-10T13:24:11;22.23;;;16.67;;
15665;SDS011;20725;51.196;3.510;2022-12-10T13:27:14;25.07;;;21.37;;
15665;SDS011;20725;51.196;3.510;2022-12-10T13:40:21;27.00;;;22.07;;
15665;SDS011;20725;51.196;3.510;2022-12-10T13:43:35;27.03;;;21.73;;
15665;SDS011;20725;51.196;3.510;2022-12-10T13:46:52;25.87;;;20.07;;
15665;SDS011;20725;51.196;3.510;2022-12-10T13:53:22;28.67;;;20.93;;
15665;SDS011;20725;51.196;3.510;2022-12-10T13:59:57;27.00;;;20.43;;
15665;SDS011;20725;51.196;3.510;2022-12-10T14:05:52;25.37;;;19.53;;
15665;SDS011;20725;51.196;3.510;2022-12-10T14:12:14;30.83;;;21.63;;
15665;SDS011;20725;51.196;3.510;2022-12-10T14:15:18;29.07;;;19.50;;
15665;SDS011;20725;51.196;3.510;2022-12-10T14:19:11;30.23;;;21.17;;
15665;SDS011;20725;51.196;3.510;2022-12-10T14:25:01;40.53;;;23.60;;
15665;SDS011;20725;51.196;3.510;2022-12-10T14:27:44;47.17;;;27.43;;
15665;SDS011;20725;51.196;3.510;2022-12-10T14:31:01;49.23;;;29.27;;
15665;SDS011;20725;51.196;3.510;2022-12-10T14:33:40;42.33;;;26.47;;
15665;SDS011;20725;51.196;3.510;2022-12-10T14:36:52;51.77;;;30.17;;
15665;SDS011;20725;51.196;3.510;2022-12-10T14:39:43;49.87;;;27.83;;
15665;SDS011;20725;51.196;3.510;2022-12-10T15:29:50;36.30;;;23.53;;
15665;SDS011;20725;51.196;3.510;2022-12-10T15:36:30;45.23;;;26.83;;
15665;SDS011;20725;51.196;3.510;2022-12-10T17:12:23;63.60;;;32.77;;
15665;SDS011;20725;51.196;3.510;2022-12-10T17:15:29;63.80;;;36.27;;
15665;SDS011;20725;51.196;3.510;2022-12-10T17:18:34;57.10;;;26.93;;
15665;SDS011;20725;51.196;3.510;2022-12-10T17:21:35;61.20;;;32.67;;
15665;SDS011;20725;51.196;3.510;2022-12-10T17:24:39;50.00;;;25.70;;
15665;SDS011;20725;51.196;3.510;2022-12-10T17:27:40;50.80;;;28.07;;
15665;SDS011;20725;51.196;3.510;2022-12-10T17:35:45;40.87;;;22.20;;
15665;SDS011;20725;51.196;3.510;2022-12-10T17:37:09;50.03;;;27.97;;
15665;SDS011;20725;51.196;3.510;2022-12-10T17:42:08;64.20;;;37.70;;
15665;SDS011;20725;51.196;3.510;2022-12-10T17:50:31;53.73;;;29.60;;
15665;SDS011;20725;51.196;3.510;2022-12-10T17:53:51;59.27;;;33.03;;
15665;SDS011;20725;51.196;3.510;2022-12-10T17:56:48;64.00;;;34.97;;
15665;SDS011;20725;51.196;3.510;2022-12-10T18:02:36;56.30;;;31.10;;
15665;SDS011;20725;51.196;3.510;2022-12-10T18:08:40;51.67;;;28.73;;
15665;SDS011;20725;51.196;3.510;2022-12-10T18:11:38;62.60;;;35.57;;
15665;SDS011;20725;51.196;3.510;2022-12-10T18:17:54;62.23;;;34.50;;
15665;SDS011;20725;51.196;3.510;2022-12-10T18:40:11;54.53;;;33.37;;
15665;SDS011;20725;51.196;3.510;2022-12-10T18:43:43;55.27;;;29.43;;
15665;SDS011;20725;51.196;3.510;2022-12-10T18:46:44;56.60;;;31.33;;
15665;SDS011;20725;51.196;3.510;2022-12-10T18:49:56;51.73;;;29.90;;
15665;SDS011;20725;51.196;3.510;2022-12-10T19:14:40;57.93;;;31.90;;
15665;SDS011;20725;51.196;3.510;2022-12-10T19:20:47;48.90;;;26.47;;
15665;SDS011;20725;51.196;3.510;2022-12-10T19:26:41;45.30;;;27.00;;
15665;SDS011;20725;51.196;3.510;2022-12-10T19:36:19;49.73;;;30.50;;
15665;SDS011;20725;51.196;3.510;2022-12-10T19:39:20;57.83;;;33.63;;
15665;SDS011;20725;51.196;3.510;2022-12-10T19:42:36;56.00;;;29.23;;
15665;SDS011;20725;51.196;3.510;2022-12-10T19:45:41;52.83;;;32.33;;
15665;SDS011;20725;51.196;3.510;2022-12-10T19:51:56;53.00;;;32.50;;
15665;SDS011;20725;51.196;3.510;2022-12-10T19:54:55;54.57;;;33.17;;
15665;SDS011;20725;51.196;3.510;2022-12-10T19:58:37;61.67;;;35.60;;
15665;SDS011;20725;51.196;3.510;2022-12-10T20:00:57;58.20;;;34.73;;
15665;SDS011;20725;51.196;3.510;2022-12-10T20:04:03;52.50;;;33.00;;
15665;SDS011;20725;51.196;3.510;2022-12-10T20:10:43;47.20;;;28.87;;
15665;SDS011;20725;51.196;3.510;2022-12-10T20:13:57;47.63;;;27.53;;
15665;SDS011;20725;51.196;3.510;2022-12-10T20:17:07;44.80;;;25.73;;
15665;SDS011;20725;51.196;3.510;2022-12-10T20:20:26;47.47;;;27.23;;
15665;SDS011;20725;51.196;3.510;2022-12-10T20:23:24;44.13;;;27.10;;
15665;SDS011;20725;51.196;3.510;2022-12-10T20:26:32;45.97;;;27.83;;
15665;SDS011;20725;51.196;3.510;2022-12-10T20:29:41;41.07;;;25.33;;
15665;SDS011;20725;51.196;3.510;2022-12-10T20:32:24;43.40;;;27.17;;
15665;SDS011;20725;51.196;3.510;2022-12-10T20:35:34;50.23;;;29.80;;
15665;SDS011;20725;51.196;3.510;2022-12-10T20:44:55;56.73;;;36.63;;
15665;SDS011;20725;51.196;3.510;2022-12-10T20:51:34;54.30;;;33.07;;
15665;SDS011;20725;51.196;3.510;2022-12-10T20:54:49;46.67;;;28.00;;
15665;SDS011;20725;51.196;3.510;2022-12-10T21:07:22;57.63;;;29.07;;
15665;SDS011;20725;51.196;3.510;2022-12-10T21:10:43;54.90;;;25.23;;
15665;SDS011;20725;51.196;3.510;2022-12-10T21:35:09;72.47;;;29.77;;
15665;SDS011;20725;51.196;3.510;2022-12-10T21:38:10;81.60;;;33.30;;
15665;SDS011;20725;51.196;3.510;2022-12-10T21:45:00;79.83;;;33.40;;
15665;SDS011;20725;51.196;3.510;2022-12-10T21:48:12;61.00;;;26.27;;
15665;SDS011;20725;51.196;3.510;2022-12-10T21:51:25;77.57;;;32.60;;
15665;SDS011;20725;51.196;3.510;2022-12-10T21:54:26;78.10;;;34.07;;
15665;SDS011;20725;51.196;3.510;2022-12-10T21:57:24;69.87;;;31.50;;
15665;SDS011;20725;51.196;3.510;2022-12-10T22:00:26;64.17;;;32.20;;
15665;SDS011;20725;51.196;3.510;2022-12-10T22:03:26;67.50;;;32.30;;
15665;SDS011;20725;51.196;3.510;2022-12-10T22:19:53;47.17;;;22.60;;
15665;SDS011;20725;51.196;3.510;2022-12-10T22:26:17;49.50;;;23.77;;
15665;SDS011;20725;51.196;3.510;2022-12-10T22:29:41;64.30;;;31.13;;
15665;SDS011;20725;51.196;3.510;2022-12-10T22:32:39;66.80;;;30.50;;
15665;SDS011;20725;51.196;3.510;2022-12-10T22:35:25;66.23;;;31.20;;
15665;SDS011;20725;51.196;3.510;2022-12-10T22:38:32;65.13;;;31.07;;
15665;SDS011;20725;51.196;3.510;2022-12-10T22:44:39;63.70;;;30.27;;
15665;SDS011;20725;51.196;3.510;2022-12-10T22:50:59;65.67;;;31.80;;
15665;SDS011;20725;51.196;3.510;2022-12-10T22:54:12;60.13;;;28.10;;
15665;SDS011;20725;51.196;3.510;2022-12-10T22:57:17;57.90;;;27.37;;
15665;SDS011;20725;51.196;3.510;2022-12-10T23:00:45;49.87;;;25.90;;
15665;SDS011;20725;51.196;3.510;2022-12-10T23:03:39;51.70;;;27.03;;
15665;SDS011;20725;51.196;3.510;2022-12-10T23:09:55;59.50;;;30.03;;
15665;SDS011;20725;51.196;3.510;2022-12-10T23:13:14;49.97;;;27.03;;
15665;SDS011;20725;51.196;3.510;2022-12-10T23:16:19;48.53;;;25.90;;
15665;SDS011;20725;51.196;3.510;2022-12-10T23:25:33;54.13;;;26.53;;
15665;SDS011;20725;51.196;3.510;2022-12-10T23:28:25;45.47;;;23.60;;
15665;SDS011;20725;51.196;3.510;2022-12-10T23:31:32;49.97;;;24.13;;
15665;SDS011;20725;51.196;3.510;2022-12-10T23:37:39;48.07;;;26.00;;
15665;SDS011;20725;51.196;3.510;2022-12-10T23:44:06;43.83;;;26.00;;
15665;SDS011;20725;51.196;3.510;2022-12-10T23:47:04;47.90;;;25.53;;
15665;SDS011;20725;51.196;3.510;2022-12-10T23:49:51;40.83;;;25.67;;
15665;SDS011;20725;51.196;3.510;2022-12-10T23:52:46;43.87;;;24.63;;
15665;SDS011;20725;51.196;3.510;2022-12-10T23:55:57;45.13;;;26.17;;
15665;SDS011;20725;51.196;3.510;2022-12-10T23:59:02;44.43;;;23.80;;
